Mc Roberts, Kentucky
Current Conditions -  °F | °C
As of 10:35 PM on Saturday 24 Jan 2015 (Local Time) from KLNP Reporting Station
Broken Clouds Broken Clouds  
Wind Chill: 28°   Ceiling: 3600
Heat Index: 34°   Visibility: 10mi
Dew Point: 28°   Wind: 7mph
Humidity: 81%   Direction: 270°W
Pressure: 29.84"   Gusts: NA
Location:  37.2122°N, 82.6733°W
Report Text: KLNP 250335Z AUTO 27006KT 10SM SCT017 BKN036 01/M02 A2984 RMK AO2
Loading
Personal Weather Stations






























Interactive Weather Map New forecast layout! Learn more

10-Day Weather Forecast

Advertisements
Track Severe Weather on mobile